sensor_id;sensor_type;location;lat;lon;timestamp;P1;durP1;ratioP1;P2;durP2;ratioP2
74753;SDS011;63271;53.340;-6.260;2024-03-07T07:03:16;9.02;;;2.15;;
74753;SDS011;63271;53.340;-6.260;2024-03-07T07:05:41;8.63;;;1.98;;
74753;SDS011;63271;53.340;-6.260;2024-03-07T07:08:07;8.20;;;1.95;;
74753;SDS011;63271;53.340;-6.260;2024-03-07T07:10:34;7.97;;;1.58;;
74753;SDS011;63271;53.340;-6.260;2024-03-07T07:13:04;6.18;;;1.50;;
74753;SDS011;63271;53.340;-6.260;2024-03-07T07:15:32;10.88;;;1.73;;
74753;SDS011;63271;53.340;-6.260;2024-03-07T07:17:58;7.28;;;1.30;;
74753;SDS011;63271;53.340;-6.260;2024-03-07T07:20:29;10.20;;;2.20;;
74753;SDS011;63271;53.340;-6.260;2024-03-07T07:22:54;6.03;;;1.52;;
74753;SDS011;63271;53.340;-6.260;2024-03-07T07:25:22;4.80;;;1.40;;
74753;SDS011;63271;53.340;-6.260;2024-03-07T07:27:52;8.70;;;1.77;;
74753;SDS011;63271;53.340;-6.260;2024-03-07T07:30:21;4.35;;;1.40;;
74753;SDS011;63271;53.340;-6.260;2024-03-07T07:32:52;7.13;;;1.95;;
74753;SDS011;63271;53.340;-6.260;2024-03-07T07:35:18;9.52;;;1.90;;
74753;SDS011;63271;53.340;-6.260;2024-03-07T07:37:47;5.07;;;1.38;;
74753;SDS011;63271;53.340;-6.260;2024-03-07T07:40:20;9.18;;;1.95;;
74753;SDS011;63271;53.340;-6.260;2024-03-07T07:42:51;8.02;;;1.63;;
74753;SDS011;63271;53.340;-6.260;2024-03-07T07:45:22;9.30;;;1.65;;
74753;SDS011;63271;53.340;-6.260;2024-03-07T07:47:52;5.88;;;1.67;;
74753;SDS011;63271;53.340;-6.260;2024-03-07T07:50:22;7.47;;;1.75;;
74753;SDS011;63271;53.340;-6.260;2024-03-07T07:52:49;6.68;;;1.90;;
74753;SDS011;63271;53.340;-6.260;2024-03-07T07:55:26;9.25;;;1.80;;
74753;SDS011;63271;53.340;-6.260;2024-03-07T07:57:58;7.75;;;2.00;;
74753;SDS011;63271;53.340;-6.260;2024-03-07T08:00:29;6.63;;;1.52;;
74753;SDS011;63271;53.340;-6.260;2024-03-07T08:05:28;6.97;;;1.70;;
74753;SDS011;63271;53.340;-6.260;2024-03-07T08:07:55;9.82;;;2.20;;
74753;SDS011;63271;53.340;-6.260;2024-03-07T08:10:25;8.13;;;1.85;;
74753;SDS011;63271;53.340;-6.260;2024-03-07T08:12:56;7.63;;;1.60;;
74753;SDS011;63271;53.340;-6.260;2024-03-07T08:15:28;6.30;;;1.95;;
74753;SDS011;63271;53.340;-6.260;2024-03-07T08:17:54;4.38;;;1.40;;
74753;SDS011;63271;53.340;-6.260;2024-03-07T08:20:20;6.93;;;1.75;;
74753;SDS011;63271;53.340;-6.260;2024-03-07T08:22:50;7.07;;;1.63;;
74753;SDS011;63271;53.340;-6.260;2024-03-07T08:25:25;8.45;;;1.92;;
74753;SDS011;63271;53.340;-6.260;2024-03-07T08:27:53;8.75;;;2.05;;
74753;SDS011;63271;53.340;-6.260;2024-03-07T08:30:19;6.65;;;1.58;;
74753;SDS011;63271;53.340;-6.260;2024-03-07T08:35:13;7.65;;;2.08;;
74753;SDS011;63271;53.340;-6.260;2024-03-07T08:37:39;4.75;;;1.77;;
74753;SDS011;63271;53.340;-6.260;2024-03-07T08:40:05;6.32;;;1.50;;
74753;SDS011;63271;53.340;-6.260;2024-03-07T08:42:35;7.10;;;1.52;;
74753;SDS011;63271;53.340;-6.260;2024-03-07T08:45:01;10.35;;;2.08;;
74753;SDS011;63271;53.340;-6.260;2024-03-07T08:47:33;6.07;;;1.55;;
74753;SDS011;63271;53.340;-6.260;2024-03-07T08:50:00;8.52;;;1.98;;
74753;SDS011;63271;53.340;-6.260;2024-03-07T08:52:26;8.80;;;1.63;;
74753;SDS011;63271;53.340;-6.260;2024-03-07T08:54:53;5.60;;;1.65;;
74753;SDS011;63271;53.340;-6.260;2024-03-07T08:57:18;8.57;;;2.03;;
74753;SDS011;63271;53.340;-6.260;2024-03-07T08:59:47;5.35;;;1.60;;
74753;SDS011;63271;53.340;-6.260;2024-03-07T09:02:15;7.00;;;1.42;;
74753;SDS011;63271;53.340;-6.260;2024-03-07T09:04:46;6.10;;;1.55;;
74753;SDS011;63271;53.340;-6.260;2024-03-07T09:07:13;10.27;;;2.42;;
74753;SDS011;63271;53.340;-6.260;2024-03-07T09:09:40;6.30;;;1.88;;
74753;SDS011;63271;53.340;-6.260;2024-03-07T09:12:08;4.78;;;1.48;;
74753;SDS011;63271;53.340;-6.260;2024-03-07T09:14:36;2.97;;;1.38;;
74753;SDS011;63271;53.340;-6.260;2024-03-07T09:17:02;9.43;;;2.50;;
74753;SDS011;63271;53.340;-6.260;2024-03-07T09:19:32;7.28;;;2.00;;
74753;SDS011;63271;53.340;-6.260;2024-03-07T09:21:57;6.82;;;2.10;;
74753;SDS011;63271;53.340;-6.260;2024-03-07T09:24:23;5.25;;;1.85;;
74753;SDS011;63271;53.340;-6.260;2024-03-07T09:26:51;7.30;;;2.10;;
74753;SDS011;63271;53.340;-6.260;2024-03-07T09:29:18;6.47;;;1.85;;
74753;SDS011;63271;53.340;-6.260;2024-03-07T09:31:48;6.82;;;1.90;;
74753;SDS011;63271;53.340;-6.260;2024-03-07T09:34:17;6.10;;;1.75;;
74753;SDS011;63271;53.340;-6.260;2024-03-07T09:36:48;6.35;;;1.80;;
74753;SDS011;63271;53.340;-6.260;2024-03-07T09:39:17;8.48;;;1.85;;
74753;SDS011;63271;53.340;-6.260;2024-03-07T09:41:43;8.27;;;2.10;;
74753;SDS011;63271;53.340;-6.260;2024-03-07T09:44:09;6.93;;;1.95;;
74753;SDS011;63271;53.340;-6.260;2024-03-07T09:46:40;5.40;;;1.58;;
74753;SDS011;63271;53.340;-6.260;2024-03-07T09:49:06;4.03;;;1.48;;
74753;SDS011;63271;53.340;-6.260;2024-03-07T09:51:33;13.27;;;2.28;;
74753;SDS011;63271;53.340;-6.260;2024-03-07T09:54:00;6.55;;;2.05;;
74753;SDS011;63271;53.340;-6.260;2024-03-07T09:56:27;5.22;;;1.98;;
74753;SDS011;63271;53.340;-6.260;2024-03-07T09:58:57;9.75;;;2.05;;
74753;SDS011;63271;53.340;-6.260;2024-03-07T10:01:26;8.23;;;2.20;;
74753;SDS011;63271;53.340;-6.260;2024-03-07T10:03:56;3.65;;;1.45;;
74753;SDS011;63271;53.340;-6.260;2024-03-07T10:06:23;5.97;;;1.83;;
74753;SDS011;63271;53.340;-6.260;2024-03-07T10:08:51;6.80;;;2.08;;
74753;SDS011;63271;53.340;-6.260;2024-03-07T10:11:19;6.80;;;2.03;;
74753;SDS011;63271;53.340;-6.260;2024-03-07T10:13:45;8.38;;;1.95;;
74753;SDS011;63271;53.340;-6.260;2024-03-07T10:16:15;7.82;;;2.15;;
74753;SDS011;63271;53.340;-6.260;2024-03-07T10:18:43;6.95;;;1.90;;
74753;SDS011;63271;53.340;-6.260;2024-03-07T10:21:12;5.05;;;1.75;;
74753;SDS011;63271;53.340;-6.260;2024-03-07T10:23:43;9.18;;;1.98;;
74753;SDS011;63271;53.340;-6.260;2024-03-07T10:26:09;10.68;;;1.92;;
74753;SDS011;63271;53.340;-6.260;2024-03-07T10:28:35;5.38;;;1.83;;
74753;SDS011;63271;53.340;-6.260;2024-03-07T10:31:03;8.95;;;1.98;;
74753;SDS011;63271;53.340;-6.260;2024-03-07T10:33:29;6.20;;;2.20;;
74753;SDS011;63271;53.340;-6.260;2024-03-07T10:36:01;7.72;;;1.63;;
74753;SDS011;63271;53.340;-6.260;2024-03-07T10:38:38;7.88;;;2.10;;
74753;SDS011;63271;53.340;-6.260;2024-03-07T10:41:03;12.10;;;2.50;;
74753;SDS011;63271;53.340;-6.260;2024-03-07T10:43:34;7.00;;;2.03;;
74753;SDS011;63271;53.340;-6.260;2024-03-07T10:46:03;6.85;;;2.03;;
74753;SDS011;63271;53.340;-6.260;2024-03-07T10:48:38;8.45;;;2.13;;
74753;SDS011;63271;53.340;-6.260;2024-03-07T10:59:19;8.20;;;1.85;;
74753;SDS011;63271;53.340;-6.260;2024-03-07T11:04:15;5.72;;;2.05;;
74753;SDS011;63271;53.340;-6.260;2024-03-07T11:06:43;7.82;;;1.55;;
74753;SDS011;63271;53.340;-6.260;2024-03-07T11:09:10;3.30;;;1.38;;
74753;SDS011;63271;53.340;-6.260;2024-03-07T11:11:48;5.95;;;1.58;;
74753;SDS011;63271;53.340;-6.260;2024-03-07T11:14:15;7.13;;;1.40;;
74753;SDS011;63271;53.340;-6.260;2024-03-07T11:16:44;5.78;;;1.30;;
74753;SDS011;63271;53.340;-6.260;2024-03-07T11:19:17;4.85;;;1.35;;
74753;SDS011;63271;53.340;-6.260;2024-03-07T11:21:47;3.85;;;1.42;;
74753;SDS011;63271;53.340;-6.260;2024-03-07T11:24:28;3.22;;;1.15;;
74753;SDS011;63271;53.340;-6.260;2024-03-07T11:26:57;5.55;;;1.40;;
74753;SDS011;63271;53.340;-6.260;2024-03-07T11:32:08;4.63;;;1.60;;
74753;SDS011;63271;53.340;-6.260;2024-03-07T11:34:38;2.95;;;1.35;;
74753;SDS011;63271;53.340;-6.260;2024-03-07T11:37:08;5.03;;;1.42;;
74753;SDS011;63271;53.340;-6.260;2024-03-07T11:39:46;4.57;;;1.10;;
74753;SDS011;63271;53.340;-6.260;2024-03-07T11:44:50;6.28;;;1.33;;
74753;SDS011;63271;53.340;-6.260;2024-03-07T11:47:16;2.40;;;1.20;;
74753;SDS011;63271;53.340;-6.260;2024-03-07T11:49:43;8.40;;;1.80;;
74753;SDS011;63271;53.340;-6.260;2024-03-07T11:52:16;2.22;;;1.17;;
74753;SDS011;63271;53.340;-6.260;2024-03-07T11:54:42;4.80;;;1.40;;
74753;SDS011;63271;53.340;-6.260;2024-03-07T11:57:20;3.15;;;1.10;;
74753;SDS011;63271;53.340;-6.260;2024-03-07T11:59:57;5.22;;;1.25;;
74753;SDS011;63271;53.340;-6.260;2024-03-07T12:02:25;5.25;;;2.03;;
74753;SDS011;63271;53.340;-6.260;2024-03-07T12:04:54;6.70;;;1.70;;
74753;SDS011;63271;53.340;-6.260;2024-03-07T12:07:20;4.22;;;1.17;;
74753;SDS011;63271;53.340;-6.260;2024-03-07T12:09:48;5.95;;;1.30;;
74753;SDS011;63271;53.340;-6.260;2024-03-07T12:12:19;4.13;;;1.45;;
74753;SDS011;63271;53.340;-6.260;2024-03-07T12:14:46;9.80;;;1.63;;
74753;SDS011;63271;53.340;-6.260;2024-03-07T12:17:13;5.60;;;1.73;;
74753;SDS011;63271;53.340;-6.260;2024-03-07T12:19:43;3.58;;;1.25;;
74753;SDS011;63271;53.340;-6.260;2024-03-07T12:22:09;4.50;;;1.02;;
74753;SDS011;63271;53.340;-6.260;2024-03-07T12:24:40;6.18;;;1.63;;
74753;SDS011;63271;53.340;-6.260;2024-03-07T12:27:09;5.32;;;1.38;;
74753;SDS011;63271;53.340;-6.260;2024-03-07T12:29:41;4.32;;;1.48;;
74753;SDS011;63271;53.340;-6.260;2024-03-07T12:32:13;4.43;;;1.55;;
74753;SDS011;63271;53.340;-6.260;2024-03-07T12:34:39;6.75;;;1.90;;
74753;SDS011;63271;53.340;-6.260;2024-03-07T12:37:10;7.00;;;1.60;;
74753;SDS011;63271;53.340;-6.260;2024-03-07T12:39:41;4.32;;;1.50;;
74753;SDS011;63271;53.340;-6.260;2024-03-07T12:42:17;4.32;;;1.42;;
74753;SDS011;63271;53.340;-6.260;2024-03-07T12:44:46;6.25;;;1.52;;
74753;SDS011;63271;53.340;-6.260;2024-03-07T12:47:15;7.25;;;1.58;;
74753;SDS011;63271;53.340;-6.260;2024-03-07T12:49:44;5.82;;;1.88;;
74753;SDS011;63271;53.340;-6.260;2024-03-07T12:52:12;10.82;;;1.67;;
74753;SDS011;63271;53.340;-6.260;2024-03-07T12:54:43;8.43;;;1.60;;
74753;SDS011;63271;53.340;-6.260;2024-03-07T12:57:11;9.13;;;1.80;;
74753;SDS011;63271;53.340;-6.260;2024-03-07T12:59:39;6.40;;;1.50;;
74753;SDS011;63271;53.340;-6.260;2024-03-07T13:02:09;7.72;;;1.60;;
74753;SDS011;63271;53.340;-6.260;2024-03-07T13:04:38;8.95;;;1.58;;
74753;SDS011;63271;53.340;-6.260;2024-03-07T13:07:04;7.90;;;2.25;;
74753;SDS011;63271;53.340;-6.260;2024-03-07T13:09:33;8.93;;;2.05;;
74753;SDS011;63271;53.340;-6.260;2024-03-07T13:11:59;7.88;;;1.80;;
74753;SDS011;63271;53.340;-6.260;2024-03-07T13:14:34;6.07;;;1.48;;
74753;SDS011;63271;53.340;-6.260;2024-03-07T13:17:02;7.35;;;1.60;;
74753;SDS011;63271;53.340;-6.260;2024-03-07T13:19:29;8.38;;;2.17;;
74753;SDS011;63271;53.340;-6.260;2024-03-07T13:22:00;4.85;;;1.95;;
74753;SDS011;63271;53.340;-6.260;2024-03-07T13:24:27;4.93;;;1.50;;
74753;SDS011;63271;53.340;-6.260;2024-03-07T13:26:55;5.85;;;2.35;;
74753;SDS011;63271;53.340;-6.260;2024-03-07T13:29:20;8.70;;;1.88;;
74753;SDS011;63271;53.340;-6.260;2024-03-07T13:31:49;4.80;;;1.83;;
74753;SDS011;63271;53.340;-6.260;2024-03-07T13:34:16;6.93;;;2.20;;
74753;SDS011;63271;53.340;-6.260;2024-03-07T13:36:44;7.90;;;1.92;;
74753;SDS011;63271;53.340;-6.260;2024-03-07T13:39:12;5.60;;;2.20;;
74753;SDS011;63271;53.340;-6.260;2024-03-07T13:41:41;6.78;;;2.20;;
74753;SDS011;63271;53.340;-6.260;2024-03-07T13:44:06;8.95;;;2.40;;
74753;SDS011;63271;53.340;-6.260;2024-03-07T13:46:32;5.72;;;1.77;;
74753;SDS011;63271;53.340;-6.260;2024-03-07T13:49:01;5.28;;;1.90;;
74753;SDS011;63271;53.340;-6.260;2024-03-07T13:51:43;7.05;;;1.88;;
74753;SDS011;63271;53.340;-6.260;2024-03-07T13:54:31;10.18;;;2.08;;
74753;SDS011;63271;53.340;-6.260;2024-03-07T13:59:49;3.88;;;1.75;;
74753;SDS011;63271;53.340;-6.260;2024-03-07T14:03:41;7.40;;;1.98;;
74753;SDS011;63271;53.340;-6.260;2024-03-07T14:26:02;15.02;;;2.75;;
74753;SDS011;63271;53.340;-6.260;2024-03-07T14:31:45;5.78;;;1.83;;
74753;SDS011;63271;53.340;-6.260;2024-03-07T14:34:29;8.43;;;2.22;;
74753;SDS011;63271;53.340;-6.260;2024-03-07T14:37:17;15.35;;;2.67;;
74753;SDS011;63271;53.340;-6.260;2024-03-07T14:39:48;10.05;;;2.45;;
74753;SDS011;63271;53.340;-6.260;2024-03-07T14:42:15;14.63;;;2.20;;
74753;SDS011;63271;53.340;-6.260;2024-03-07T14:44:42;14.48;;;2.25;;
74753;SDS011;63271;53.340;-6.260;2024-03-07T14:47:13;9.07;;;2.47;;
74753;SDS011;63271;53.340;-6.260;2024-03-07T14:49:41;10.85;;;2.03;;
74753;SDS011;63271;53.340;-6.260;2024-03-07T14:52:09;6.20;;;2.08;;
74753;SDS011;63271;53.340;-6.260;2024-03-07T14:54:36;12.88;;;2.53;;
74753;SDS011;63271;53.340;-6.260;2024-03-07T14:57:02;26.88;;;2.47;;
74753;SDS011;63271;53.340;-6.260;2024-03-07T14:59:29;11.75;;;2.65;;
74753;SDS011;63271;53.340;-6.260;2024-03-07T15:01:55;12.15;;;2.33;;
74753;SDS011;63271;53.340;-6.260;2024-03-07T15:04:21;20.92;;;2.50;;
74753;SDS011;63271;53.340;-6.260;2024-03-07T15:06:47;16.20;;;2.60;;
74753;SDS011;63271;53.340;-6.260;2024-03-07T15:09:13;14.82;;;2.75;;
74753;SDS011;63271;53.340;-6.260;2024-03-07T15:11:39;7.32;;;2.30;;
74753;SDS011;63271;53.340;-6.260;2024-03-07T15:14:08;9.40;;;2.10;;
74753;SDS011;63271;53.340;-6.260;2024-03-07T15:16:36;14.43;;;2.30;;
74753;SDS011;63271;53.340;-6.260;2024-03-07T15:19:05;13.10;;;2.75;;
74753;SDS011;63271;53.340;-6.260;2024-03-07T15:21:32;14.80;;;2.50;;
74753;SDS011;63271;53.340;-6.260;2024-03-07T15:23:58;13.38;;;2.03;;
74753;SDS011;63271;53.340;-6.260;2024-03-07T15:26:24;11.48;;;2.72;;
74753;SDS011;63271;53.340;-6.260;2024-03-07T15:28:51;6.18;;;2.30;;
74753;SDS011;63271;53.340;-6.260;2024-03-07T15:31:17;6.03;;;2.30;;
74753;SDS011;63271;53.340;-6.260;2024-03-07T15:33:47;8.95;;;2.35;;
74753;SDS011;63271;53.340;-6.260;2024-03-07T15:36:14;6.75;;;2.20;;
74753;SDS011;63271;53.340;-6.260;2024-03-07T15:38:39;8.60;;;2.75;;
74753;SDS011;63271;53.340;-6.260;2024-03-07T15:41:05;10.13;;;2.63;;
74753;SDS011;63271;53.340;-6.260;2024-03-07T15:43:40;14.05;;;2.30;;
74753;SDS011;63271;53.340;-6.260;2024-03-07T15:46:12;10.90;;;3.10;;
74753;SDS011;63271;53.340;-6.260;2024-03-07T15:48:41;17.58;;;2.53;;
74753;SDS011;63271;53.340;-6.260;2024-03-07T15:51:13;11.45;;;2.47;;
74753;SDS011;63271;53.340;-6.260;2024-03-07T15:53:41;16.73;;;2.30;;
74753;SDS011;63271;53.340;-6.260;2024-03-07T15:56:07;14.20;;;2.63;;
74753;SDS011;63271;53.340;-6.260;2024-03-07T15:58:35;13.55;;;2.78;;
74753;SDS011;63271;53.340;-6.260;2024-03-07T16:01:06;6.55;;;1.95;;
74753;SDS011;63271;53.340;-6.260;2024-03-07T16:03:33;19.25;;;2.95;;
74753;SDS011;63271;53.340;-6.260;2024-03-07T16:05:59;18.17;;;2.42;;
74753;SDS011;63271;53.340;-6.260;2024-03-07T16:08:24;9.05;;;2.22;;
74753;SDS011;63271;53.340;-6.260;2024-03-07T16:10:52;12.13;;;2.67;;
74753;SDS011;63271;53.340;-6.260;2024-03-07T16:13:20;11.23;;;2.05;;
74753;SDS011;63271;53.340;-6.260;2024-03-07T16:15:49;6.88;;;1.83;;
74753;SDS011;63271;53.340;-6.260;2024-03-07T16:18:18;7.95;;;1.90;;
74753;SDS011;63271;53.340;-6.260;2024-03-07T16:20:48;7.63;;;2.22;;
74753;SDS011;63271;53.340;-6.260;2024-03-07T16:23:14;6.53;;;2.00;;
74753;SDS011;63271;53.340;-6.260;2024-03-07T16:25:42;10.18;;;2.55;;
74753;SDS011;63271;53.340;-6.260;2024-03-07T16:28:08;9.45;;;2.03;;
74753;SDS011;63271;53.340;-6.260;2024-03-07T16:30:38;5.68;;;1.60;;
74753;SDS011;63271;53.340;-6.260;2024-03-07T16:35:34;6.75;;;1.63;;
74753;SDS011;63271;53.340;-6.260;2024-03-07T16:38:02;3.95;;;1.65;;
74753;SDS011;63271;53.340;-6.260;2024-03-07T16:40:29;7.47;;;2.05;;
74753;SDS011;63271;53.340;-6.260;2024-03-07T16:43:00;9.23;;;2.00;;
74753;SDS011;63271;53.340;-6.260;2024-03-07T16:45:26;6.95;;;1.63;;
74753;SDS011;63271;53.340;-6.260;2024-03-07T16:47:55;6.93;;;2.03;;
74753;SDS011;63271;53.340;-6.260;2024-03-07T16:50:25;4.03;;;1.85;;
74753;SDS011;63271;53.340;-6.260;2024-03-07T16:52:55;8.60;;;1.85;;
74753;SDS011;63271;53.340;-6.260;2024-03-07T16:55:24;3.58;;;1.50;;
74753;SDS011;63271;53.340;-6.260;2024-03-07T16:57:53;5.80;;;1.58;;
74753;SDS011;63271;53.340;-6.260;2024-03-07T17:00:21;5.05;;;1.92;;
74753;SDS011;63271;53.340;-6.260;2024-03-07T17:02:57;5.15;;;1.88;;
74753;SDS011;63271;53.340;-6.260;2024-03-07T17:05:30;7.40;;;2.15;;
74753;SDS011;63271;53.340;-6.260;2024-03-07T17:07:57;6.00;;;1.67;;
74753;SDS011;63271;53.340;-6.260;2024-03-07T17:10:26;5.18;;;1.90;;
74753;SDS011;63271;53.340;-6.260;2024-03-07T17:12:52;6.90;;;2.75;;
74753;SDS011;63271;53.340;-6.260;2024-03-07T17:15:20;7.57;;;2.53;;
74753;SDS011;63271;53.340;-6.260;2024-03-07T17:17:52;12.70;;;2.22;;
74753;SDS011;63271;53.340;-6.260;2024-03-07T17:20:22;5.70;;;2.20;;
74753;SDS011;63271;53.340;-6.260;2024-03-07T17:22:54;7.53;;;2.35;;
74753;SDS011;63271;53.340;-6.260;2024-03-07T17:25:20;5.70;;;2.20;;
74753;SDS011;63271;53.340;-6.260;2024-03-07T17:27:47;9.95;;;2.28;;
74753;SDS011;63271;53.340;-6.260;2024-03-07T17:30:22;11.35;;;2.33;;
74753;SDS011;63271;53.340;-6.260;2024-03-07T17:32:50;7.82;;;2.25;;
74753;SDS011;63271;53.340;-6.260;2024-03-07T17:35:18;12.88;;;2.67;;
74753;SDS011;63271;53.340;-6.260;2024-03-07T17:37:48;8.90;;;2.40;;
74753;SDS011;63271;53.340;-6.260;2024-03-07T17:40:15;12.10;;;2.90;;
74753;SDS011;63271;53.340;-6.260;2024-03-07T17:42:44;11.32;;;3.08;;
74753;SDS011;63271;53.340;-6.260;2024-03-07T17:45:17;9.65;;;2.83;;
74753;SDS011;63271;53.340;-6.260;2024-03-07T17:47:53;8.27;;;2.35;;
74753;SDS011;63271;53.340;-6.260;2024-03-07T17:50:26;7.95;;;2.55;;
74753;SDS011;63271;53.340;-6.260;2024-03-07T17:52:56;11.15;;;2.83;;
74753;SDS011;63271;53.340;-6.260;2024-03-07T17:55:26;14.95;;;3.20;;
74753;SDS011;63271;53.340;-6.260;2024-03-07T17:57:52;14.02;;;2.95;;
74753;SDS011;63271;53.340;-6.260;2024-03-07T18:00:22;8.55;;;3.00;;
74753;SDS011;63271;53.340;-6.260;2024-03-07T18:03:06;10.27;;;2.92;;
74753;SDS011;63271;53.340;-6.260;2024-03-07T18:05:32;7.18;;;3.30;;
74753;SDS011;63271;53.340;-6.260;2024-03-07T18:08:09;7.97;;;3.08;;
74753;SDS011;63271;53.340;-6.260;2024-03-07T18:10:37;8.65;;;2.53;;
74753;SDS011;63271;53.340;-6.260;2024-03-07T18:13:05;7.35;;;2.72;;
74753;SDS011;63271;53.340;-6.260;2024-03-07T18:15:33;10.93;;;3.03;;
74753;SDS011;63271;53.340;-6.260;2024-03-07T18:18:04;9.00;;;2.88;;
74753;SDS011;63271;53.340;-6.260;2024-03-07T18:20:30;11.10;;;3.10;;
74753;SDS011;63271;53.340;-6.260;2024-03-07T18:25:23;6.90;;;3.05;;
74753;SDS011;63271;53.340;-6.260;2024-03-07T18:27:52;7.75;;;2.47;;
74753;SDS011;63271;53.340;-6.260;2024-03-07T18:30:22;7.97;;;3.15;;
74753;SDS011;63271;53.340;-6.260;2024-03-07T18:32:50;10.73;;;2.50;;
74753;SDS011;63271;53.340;-6.260;2024-03-07T18:35:16;9.00;;;2.80;;
74753;SDS011;63271;53.340;-6.260;2024-03-07T18:37:42;6.03;;;2.72;;
74753;SDS011;63271;53.340;-6.260;2024-03-07T18:40:15;4.38;;;2.13;;
74753;SDS011;63271;53.340;-6.260;2024-03-07T18:42:42;5.10;;;2.33;;
74753;SDS011;63271;53.340;-6.260;2024-03-07T18:45:12;7.28;;;2.67;;
74753;SDS011;63271;53.340;-6.260;2024-03-07T18:47:46;7.55;;;2.63;;
74753;SDS011;63271;53.340;-6.260;2024-03-07T18:50:16;6.93;;;2.67;;
74753;SDS011;63271;53.340;-6.260;2024-03-07T18:52:51;6.82;;;2.75;;
74753;SDS011;63271;53.340;-6.260;2024-03-07T18:55:21;6.45;;;2.35;;
74753;SDS011;63271;53.340;-6.260;2024-03-07T18:57:54;9.93;;;2.95;;
74753;SDS011;63271;53.340;-6.260;2024-03-07T19:00:25;8.30;;;2.85;;
74753;SDS011;63271;53.340;-6.260;2024-03-07T19:02:58;10.23;;;2.80;;
74753;SDS011;63271;53.340;-6.260;2024-03-07T19:05:30;9.20;;;3.00;;
74753;SDS011;63271;53.340;-6.260;2024-03-07T19:07:57;7.70;;;2.60;;
74753;SDS011;63271;53.340;-6.260;2024-03-07T19:10:23;9.50;;;2.47;;
74753;SDS011;63271;53.340;-6.260;2024-03-07T19:12:54;7.68;;;2.67;;
74753;SDS011;63271;53.340;-6.260;2024-03-07T19:15:22;7.95;;;3.17;;
74753;SDS011;63271;53.340;-6.260;2024-03-07T19:17:47;7.65;;;2.53;;
74753;SDS011;63271;53.340;-6.260;2024-03-07T19:20:19;10.00;;;3.38;;
74753;SDS011;63271;53.340;-6.260;2024-03-07T19:22:46;5.10;;;2.53;;
74753;SDS011;63271;53.340;-6.260;2024-03-07T19:25:12;7.97;;;3.17;;
74753;SDS011;63271;53.340;-6.260;2024-03-07T19:27:47;6.80;;;3.00;;
74753;SDS011;63271;53.340;-6.260;2024-03-07T19:30:16;7.32;;;2.78;;
74753;SDS011;63271;53.340;-6.260;2024-03-07T19:32:45;6.10;;;2.95;;
74753;SDS011;63271;53.340;-6.260;2024-03-07T19:35:11;8.82;;;3.05;;
74753;SDS011;63271;53.340;-6.260;2024-03-07T19:37:46;9.27;;;3.40;;
74753;SDS011;63271;53.340;-6.260;2024-03-07T19:40:16;8.15;;;3.25;;
74753;SDS011;63271;53.340;-6.260;2024-03-07T19:45:16;8.00;;;3.28;;
74753;SDS011;63271;53.340;-6.260;2024-03-07T19:47:48;8.85;;;3.35;;
74753;SDS011;63271;53.340;-6.260;2024-03-07T19:50:13;8.20;;;3.63;;
74753;SDS011;63271;53.340;-6.260;2024-03-07T19:55:16;8.20;;;3.28;;
74753;SDS011;63271;53.340;-6.260;2024-03-07T19:57:49;8.02;;;3.53;;
74753;SDS011;63271;53.340;-6.260;2024-03-07T20:00:15;6.45;;;2.75;;
